createdAt,value
2023-02-11T00:00:06.104Z,36.65
2023-02-11T00:04:13.033Z,28.23
2023-02-11T00:08:19.689Z,32.53
2023-02-11T00:12:26.707Z,24.27
2023-02-11T00:16:33.713Z,30.05
2023-02-11T00:20:40.935Z,25.17
2023-02-11T00:24:47.725Z,24.27
2023-02-11T00:28:54.786Z,26.90
2023-02-11T00:33:02.353Z,20.95
2023-02-11T00:37:09.143Z,19.98
2023-02-11T00:41:17.282Z,16.75
2023-02-11T00:45:23.960Z,20.55
2023-02-11T00:49:30.680Z,17.15
2023-02-11T00:53:37.588Z,21.30
2023-02-11T00:57:44.286Z,31.45
2023-02-11T01:01:51.024Z,20.23
2023-02-11T01:05:57.745Z,18.67
2023-02-11T01:10:05.085Z,16.35
2023-02-11T01:14:11.810Z,21.33
2023-02-11T01:18:18.740Z,15.52
2023-02-11T01:22:25.519Z,26.17
2023-02-11T01:26:32.305Z,23.15
2023-02-11T01:30:39.751Z,18.92
2023-02-11T01:34:46.492Z,28.90
2023-02-11T01:38:53.188Z,16.83
2023-02-11T01:42:59.865Z,22.88
2023-02-11T01:47:06.637Z,20.17
2023-02-11T01:51:20.427Z,18.52
2023-02-11T01:55:45.702Z,29.95
2023-02-11T02:00:24.220Z,25.80
2023-02-11T02:04:35.633Z,20.35
2023-02-11T02:08:44.266Z,21.08
2023-02-11T02:12:50.990Z,19.90
2023-02-11T02:16:57.748Z,19.23
2023-02-11T02:21:42.139Z,20.58
2023-02-11T02:26:18.804Z,28.45
2023-02-11T02:31:05.403Z,17.15
2023-02-11T02:35:38.164Z,26.13
2023-02-11T02:39:48.716Z,19.33
2023-02-11T02:43:56.031Z,24.90
2023-02-11T02:48:03.003Z,24.52
2023-02-11T02:52:38.424Z,31.05
2023-02-11T02:56:57.740Z,21.92
2023-02-11T03:01:15.299Z,21.52
2023-02-11T03:05:40.371Z,28.48
2023-02-11T03:10:07.393Z,20.88
2023-02-11T03:14:17.173Z,26.23
2023-02-11T03:18:27.359Z,23.25
2023-02-11T03:22:39.879Z,20.92
2023-02-11T03:31:10.556Z,25.58
2023-02-11T03:35:26.448Z,18.83
2023-02-11T03:40:05.401Z,31.10
2023-02-11T03:44:14.531Z,19.23
2023-02-11T03:48:38.056Z,18.92
2023-02-11T03:52:47.127Z,25.88
2023-02-11T03:56:56.440Z,31.50
2023-02-11T04:01:05.138Z,19.55
2023-02-11T04:05:15.320Z,29.25
2023-02-11T04:09:22.602Z,18.85
2023-02-11T04:13:29.443Z,20.20
2023-02-11T04:17:36.152Z,30.08
2023-02-11T04:21:42.827Z,25.70
2023-02-11T04:25:50.282Z,23.05
2023-02-11T04:29:57.149Z,20.48
2023-02-11T04:34:03.886Z,22.20
2023-02-11T04:38:10.648Z,24.40
2023-02-11T04:42:17.339Z,29.02
2023-02-11T04:46:24.077Z,31.65
2023-02-11T04:50:30.953Z,24.73
2023-02-11T04:54:37.735Z,23.00
2023-02-11T04:58:44.459Z,23.58
2023-02-11T05:02:51.179Z,28.17
2023-02-11T05:06:58.778Z,27.13
2023-02-11T05:11:05.761Z,32.05
2023-02-11T05:15:13.387Z,32.83
2023-02-11T05:19:20.585Z,24.88
2023-02-11T05:23:27.438Z,33.85
2023-02-11T05:27:34.212Z,31.58
2023-02-11T05:31:40.903Z,33.95
2023-02-11T05:35:47.665Z,34.40
2023-02-11T05:39:54.383Z,38.55
2023-02-11T05:44:01.671Z,35.53
2023-02-11T05:48:08.408Z,45.90
2023-02-11T05:52:15.097Z,26.50
2023-02-11T05:56:21.753Z,30.85
2023-02-11T06:00:28.852Z,31.40
2023-02-11T06:04:36.598Z,32.55
2023-02-11T06:08:43.386Z,36.33
2023-02-11T06:12:50.093Z,38.85
2023-02-11T06:16:56.757Z,33.47
2023-02-11T06:21:07.862Z,37.30
2023-02-11T06:25:15.094Z,32.25
2023-02-11T06:29:21.788Z,35.85
2023-02-11T06:33:28.564Z,40.58
2023-02-11T06:37:35.561Z,40.42
2023-02-11T06:41:42.249Z,40.92
2023-02-11T06:45:56.250Z,38.38
2023-02-11T06:50:03.696Z,32.17
2023-02-11T06:54:12.942Z,37.88
2023-02-11T06:58:19.637Z,39.33
2023-02-11T07:02:26.427Z,40.90
2023-02-11T07:06:33.096Z,44.55
2023-02-11T07:10:40.120Z,39.85
2023-02-11T07:14:46.827Z,35.60
2023-02-11T07:18:54.201Z,35.33
2023-02-11T07:23:00.908Z,38.15
2023-02-11T07:27:07.674Z,36.08
2023-02-11T07:31:26.279Z,36.97
2023-02-11T07:35:33.020Z,40.15
2023-02-11T07:39:39.712Z,45.58
2023-02-11T07:43:47.021Z,48.35
2023-02-11T07:47:53.906Z,42.38
2023-02-11T07:52:00.656Z,48.60
2023-02-11T07:56:08.404Z,42.63
2023-02-11T08:00:15.654Z,48.75
2023-02-11T08:04:22.361Z,44.30
2023-02-11T08:08:29.020Z,45.00
2023-02-11T08:12:35.840Z,37.67
2023-02-11T08:16:42.747Z,49.28
2023-02-11T08:20:49.780Z,44.92
2023-02-11T08:24:58.351Z,47.58
2023-02-11T08:29:09.447Z,46.78
2023-02-11T08:33:16.250Z,37.50
2023-02-11T08:37:22.911Z,42.30
2023-02-11T08:41:29.679Z,39.15
2023-02-11T08:45:37.763Z,38.67
2023-02-11T08:49:44.465Z,38.75
2023-02-11T08:53:51.830Z,45.28
2023-02-11T08:57:58.515Z,43.67
2023-02-11T09:02:05.508Z,35.95
2023-02-11T09:06:13.795Z,30.75
2023-02-11T09:10:20.565Z,42.47
2023-02-11T09:14:27.668Z,42.17
2023-02-11T09:18:34.434Z,44.45
2023-02-11T09:22:41.122Z,34.78
2023-02-11T09:26:47.970Z,38.67
2023-02-11T09:30:55.043Z,37.42
2023-02-11T09:35:02.048Z,41.55
2023-02-11T09:39:17.073Z,37.95
2023-02-11T09:43:43.011Z,35.92
2023-02-11T09:47:58.554Z,35.67
2023-02-11T09:52:23.386Z,32.78
2023-02-11T09:56:30.898Z,32.15
2023-02-11T10:00:51.468Z,31.15
2023-02-11T10:05:20.162Z,33.90
2023-02-11T10:09:54.755Z,33.28
2023-02-11T10:14:07.721Z,29.13
2023-02-11T10:18:17.191Z,32.58
2023-02-11T10:22:37.519Z,28.45
2023-02-11T10:26:45.981Z,29.80
2023-02-11T10:31:08.285Z,32.00
2023-02-11T10:35:19.430Z,30.50
2023-02-11T10:39:27.675Z,25.17
2023-02-11T10:43:35.010Z,31.25
2023-02-11T10:47:42.707Z,28.40
2023-02-11T10:51:49.415Z,24.67
2023-02-11T10:55:57.452Z,28.08
2023-02-11T11:00:23.135Z,21.80
2023-02-11T11:04:29.872Z,24.05
2023-02-11T11:08:46.864Z,27.23
2023-02-11T11:12:53.572Z,20.63
2023-02-11T11:17:00.233Z,25.92
2023-02-11T11:21:14.796Z,22.35
2023-02-11T11:25:30.185Z,27.05
2023-02-11T11:29:49.345Z,26.35
2023-02-11T11:33:59.239Z,22.90
2023-02-11T11:38:06.058Z,22.67
2023-02-11T11:42:28.168Z,25.40
2023-02-11T11:46:38.681Z,26.58
2023-02-11T11:50:50.128Z,21.58
2023-02-11T11:55:07.800Z,22.97
2023-02-11T11:59:16.655Z,17.63
2023-02-11T12:03:32.286Z,22.63
2023-02-11T12:08:02.398Z,24.95
2023-02-11T12:12:32.700Z,21.73
2023-02-11T12:17:28.292Z,18.83
2023-02-11T12:21:46.596Z,16.20
2023-02-11T12:26:18.130Z,26.13
2023-02-11T12:30:58.993Z,19.85
2023-02-11T12:35:28.555Z,24.05
2023-02-11T12:40:01.335Z,18.23
2023-02-11T12:44:17.756Z,15.82
2023-02-11T12:48:48.702Z,22.58
2023-02-11T12:53:21.469Z,11.75
2023-02-11T12:57:34.669Z,12.13
2023-02-11T13:01:43.756Z,11.00
2023-02-11T13:05:55.169Z,13.68
2023-02-11T13:10:16.700Z,12.63
2023-02-11T13:14:29.486Z,16.40
2023-02-11T13:19:17.837Z,10.50
2023-02-11T13:23:46.520Z,12.02
2023-02-11T13:28:32.313Z,10.13
2023-02-11T13:32:54.400Z,13.88
2023-02-11T13:37:01.192Z,9.32
2023-02-11T13:41:29.354Z,11.18
2023-02-11T13:45:45.062Z,8.68
2023-02-11T13:49:53.449Z,9.13
2023-02-11T13:54:01.332Z,11.40
2023-02-11T13:58:07.975Z,8.73
2023-02-11T14:02:36.267Z,12.75
2023-02-11T14:07:40.696Z,9.40
2023-02-11T14:11:48.947Z,6.70
2023-02-11T14:16:06.914Z,6.22
2023-02-11T14:20:37.987Z,6.78
2023-02-11T14:24:50.906Z,7.25
2023-02-11T14:29:14.029Z,6.05
2023-02-11T14:33:48.137Z,6.15
2023-02-11T14:38:10.951Z,11.85
2023-02-11T14:42:20.964Z,8.15
2023-02-11T14:46:32.985Z,7.32
2023-02-11T14:50:43.007Z,7.82
2023-02-11T14:54:51.433Z,9.80
2023-02-11T14:58:58.714Z,16.30
2023-02-11T15:03:05.543Z,16.75
2023-02-11T15:07:14.004Z,6.82
2023-02-11T15:11:23.855Z,9.18
2023-02-11T15:15:32.416Z,5.22
2023-02-11T15:19:44.215Z,5.72
2023-02-11T15:24:03.403Z,7.25
2023-02-11T15:28:24.227Z,3.95
2023-02-11T15:32:31.036Z,3.50
2023-02-11T15:36:38.600Z,8.13
2023-02-11T15:40:58.436Z,8.10
2023-02-11T15:45:08.423Z,4.93
2023-02-11T15:49:19.220Z,4.40
2023-02-11T15:53:36.483Z,6.47
2023-02-11T15:57:49.285Z,7.03
2023-02-11T16:01:58.197Z,8.07
2023-02-11T16:06:41.884Z,5.00
2023-02-11T16:11:31.026Z,11.95
2023-02-11T16:16:11.840Z,9.45
2023-02-11T16:20:19.934Z,13.38
2023-02-11T16:24:27.990Z,10.00
2023-02-11T16:28:37.025Z,7.60
2023-02-11T16:32:43.849Z,6.55
2023-02-11T16:36:52.235Z,10.43
2023-02-11T16:40:59.009Z,9.20
2023-02-11T16:45:06.707Z,8.25
2023-02-11T16:49:23.891Z,6.65
2023-02-11T16:53:30.601Z,10.68
2023-02-11T16:57:37.272Z,4.43
2023-02-11T17:01:44.986Z,8.05
2023-02-11T17:05:55.578Z,8.38
2023-02-11T17:10:02.732Z,9.15
2023-02-11T17:14:09.414Z,11.85
2023-02-11T17:18:16.103Z,9.95
2023-02-11T17:22:22.807Z,9.70
2023-02-11T17:26:29.586Z,9.60
2023-02-11T17:30:36.383Z,10.25
2023-02-11T17:34:43.176Z,11.90
2023-02-11T17:38:51.221Z,13.05
2023-02-11T17:42:57.903Z,11.32
2023-02-11T17:47:04.716Z,8.88
2023-02-11T17:51:30.094Z,12.10
2023-02-11T17:55:38.492Z,25.60
2023-02-11T17:59:45.336Z,12.98
2023-02-11T18:03:52.003Z,10.35
2023-02-11T18:07:58.676Z,17.30
2023-02-11T18:12:06.750Z,11.75
2023-02-11T18:16:15.751Z,18.73
2023-02-11T18:20:22.661Z,9.23
2023-02-11T18:24:29.317Z,13.20
2023-02-11T18:28:36.333Z,11.18
2023-02-11T18:32:43.244Z,13.73
2023-02-11T18:36:50.146Z,16.65
2023-02-11T18:40:58.095Z,15.07
2023-02-11T18:45:09.345Z,14.60
2023-02-11T18:49:16.077Z,13.77
2023-02-11T18:53:24.752Z,19.48
2023-02-11T18:57:32.018Z,12.75
2023-02-11T19:01:43.170Z,16.98
2023-02-11T19:05:50.596Z,11.38
2023-02-11T19:09:57.503Z,11.13
2023-02-11T19:14:10.058Z,14.32
2023-02-11T19:18:16.793Z,13.35
2023-02-11T19:22:23.530Z,16.17
2023-02-11T19:26:30.300Z,13.43
2023-02-11T19:30:37.093Z,17.30
2023-02-11T19:34:43.797Z,13.80
2023-02-11T19:38:50.485Z,13.43
2023-02-11T19:42:57.162Z,12.10
2023-02-11T19:47:04.056Z,14.82
2023-02-11T19:51:13.219Z,9.88
2023-02-11T19:55:20.098Z,11.93
2023-02-11T19:59:26.842Z,11.43
2023-02-11T20:03:35.094Z,13.95
2023-02-11T20:07:41.768Z,18.80
2023-02-11T20:11:49.324Z,17.98
2023-02-11T20:15:56.112Z,21.65
2023-02-11T20:20:03.436Z,15.77
2023-02-11T20:24:10.335Z,16.30
2023-02-11T20:28:17.114Z,13.65
2023-02-11T20:32:23.964Z,14.93
2023-02-11T20:36:35.555Z,12.50
2023-02-11T20:40:44.158Z,13.27
2023-02-11T20:44:50.923Z,13.55
2023-02-11T20:48:57.804Z,8.65
2023-02-11T20:53:05.666Z,16.98
2023-02-11T20:57:12.481Z,14.10
2023-02-11T21:01:23.418Z,16.08
2023-02-11T21:05:31.020Z,13.48
2023-02-11T21:09:38.187Z,12.70
2023-02-11T21:13:45.084Z,14.85
2023-02-11T21:17:51.891Z,13.10
2023-02-11T21:22:00.627Z,14.30
2023-02-11T21:26:08.150Z,12.23
2023-02-11T21:30:14.890Z,12.82
2023-02-11T21:34:21.705Z,11.35
2023-02-11T21:38:28.904Z,18.17
2023-02-11T21:42:35.675Z,12.50
2023-02-11T21:46:42.476Z,14.23
2023-02-11T21:50:49.735Z,13.90
2023-02-11T21:54:56.435Z,15.90
2023-02-11T21:59:03.396Z,14.27
2023-02-11T22:03:10.900Z,12.98
2023-02-11T22:07:18.321Z,14.48
2023-02-11T22:11:25.041Z,13.88
2023-02-11T22:15:31.703Z,12.85
2023-02-11T22:19:38.440Z,15.02
2023-02-11T22:23:45.816Z,16.45
2023-02-11T22:27:52.503Z,15.52
2023-02-11T22:31:59.257Z,14.00
2023-02-11T22:36:11.192Z,17.08
2023-02-11T22:40:17.917Z,15.05
2023-02-11T22:44:24.976Z,13.90
2023-02-11T22:48:32.300Z,15.40
2023-02-11T22:52:38.974Z,15.40
2023-02-11T22:56:49.329Z,13.20
2023-02-11T23:00:56.024Z,11.27
2023-02-11T23:05:02.729Z,14.32
2023-02-11T23:09:12.420Z,13.82
2023-02-11T23:13:19.203Z,13.52
2023-02-11T23:17:26.164Z,11.80
2023-02-11T23:21:35.325Z,14.82
2023-02-11T23:25:45.241Z,20.42
2023-02-11T23:29:55.083Z,12.07
2023-02-11T23:34:02.097Z,14.27
2023-02-11T23:38:08.794Z,17.67
2023-02-11T23:42:15.674Z,15.23
2023-02-11T23:46:23.375Z,12.40
2023-02-11T23:50:30.268Z,17.27
2023-02-11T23:54:37.000Z,15.93
2023-02-11T23:58:44.851Z,16.02
